createdAt,value
2018-10-11T00:00:42.772Z,15.88
2018-10-11T00:01:45.435Z,15.90
2018-10-11T00:02:48.044Z,15.89
2018-10-11T00:03:50.717Z,15.89
2018-10-11T00:04:53.792Z,15.91
2018-10-11T00:05:56.456Z,15.99
2018-10-11T00:06:59.092Z,15.98
2018-10-11T00:08:01.745Z,16.01
2018-10-11T00:09:06.671Z,16.12
2018-10-11T00:10:09.362Z,16.10
2018-10-11T00:11:12.303Z,16.10
2018-10-11T00:12:14.967Z,16.09
2018-10-11T00:13:18.258Z,16.02
2018-10-11T00:14:20.894Z,15.92
2018-10-11T00:15:23.616Z,15.99
2018-10-11T00:16:26.260Z,15.97
2018-10-11T00:17:29.199Z,15.97
2018-10-11T00:18:31.828Z,15.95
2018-10-11T00:19:34.522Z,15.92
2018-10-11T00:20:37.263Z,15.96
2018-10-11T00:21:40.371Z,15.98
2018-10-11T00:22:43.111Z,15.97
2018-10-11T00:23:46.273Z,15.88
2018-10-11T00:24:48.945Z,15.87
2018-10-11T00:25:51.576Z,15.82
2018-10-11T00:26:54.224Z,15.79
2018-10-11T00:27:56.858Z,15.76
2018-10-11T00:28:59.523Z,15.74
2018-10-11T00:30:02.440Z,15.67
2018-10-11T00:31:05.115Z,15.60
2018-10-11T00:32:07.760Z,15.53
2018-10-11T00:33:10.468Z,15.57
2018-10-11T00:34:13.117Z,15.63
2018-10-11T00:35:15.752Z,15.57
2018-10-11T00:36:18.690Z,15.57
2018-10-11T00:37:21.307Z,15.56
2018-10-11T00:38:23.943Z,15.65
2018-10-11T00:39:26.893Z,15.69
2018-10-11T00:40:29.533Z,15.72
2018-10-11T00:41:32.171Z,15.72
2018-10-11T00:42:35.071Z,15.67
2018-10-11T00:43:37.739Z,15.66
2018-10-11T00:44:40.393Z,15.62
2018-10-11T00:45:43.737Z,15.58
2018-10-11T00:46:47.818Z,15.63
2018-10-11T00:47:50.471Z,15.67
2018-10-11T00:48:53.391Z,15.62
2018-10-11T00:49:56.016Z,15.59
2018-10-11T00:50:59.235Z,15.57
2018-10-11T00:52:01.864Z,15.50
2018-10-11T00:53:05.047Z,15.59
2018-10-11T00:54:07.753Z,15.56
2018-10-11T00:55:10.680Z,15.57
2018-10-11T00:56:13.299Z,15.55
2018-10-11T00:57:16.464Z,15.54
2018-10-11T00:58:19.140Z,15.53
2018-10-11T00:59:21.781Z,15.58
2018-10-11T01:00:24.428Z,15.65
2018-10-11T01:01:27.418Z,15.64
2018-10-11T01:02:30.219Z,15.65
2018-10-11T01:03:32.843Z,15.74
2018-10-11T01:04:35.520Z,15.84
2018-10-11T01:05:38.331Z,15.86
2018-10-11T01:06:41.094Z,15.81
2018-10-11T01:07:45.994Z,15.81
2018-10-11T01:08:48.638Z,15.83
2018-10-11T01:09:51.326Z,15.97
2018-10-11T01:10:53.932Z,15.94
2018-10-11T01:11:56.640Z,15.93
2018-10-11T01:12:59.249Z,15.90
2018-10-11T01:14:02.224Z,15.92
2018-10-11T01:15:04.873Z,15.93
2018-10-11T01:16:07.526Z,15.86
2018-10-11T01:17:10.162Z,15.78
2018-10-11T01:18:12.908Z,15.76
2018-10-11T01:19:15.549Z,15.77
2018-10-11T01:20:18.510Z,15.84
2018-10-11T01:21:21.198Z,15.86
2018-10-11T01:22:24.427Z,15.84
2018-10-11T01:23:27.206Z,15.83
2018-10-11T01:24:29.815Z,15.86
2018-10-11T01:25:32.470Z,15.87
2018-10-11T01:26:35.382Z,15.86
2018-10-11T01:27:38.057Z,15.92
2018-10-11T01:28:40.695Z,15.87
2018-10-11T01:29:43.391Z,15.83
2018-10-11T01:30:51.073Z,15.91
2018-10-11T01:31:53.746Z,15.87
2018-10-11T01:32:56.703Z,15.84
2018-10-11T01:33:59.334Z,15.77
2018-10-11T01:35:02.066Z,15.77
2018-10-11T01:36:04.700Z,15.79
2018-10-11T01:37:08.167Z,15.68
2018-10-11T01:38:10.770Z,15.61
2018-10-11T01:39:13.715Z,15.61
2018-10-11T01:40:16.385Z,15.62
2018-10-11T01:41:28.486Z,15.65
2018-10-11T01:42:31.130Z,15.59
2018-10-11T01:43:33.787Z,15.54
2018-10-11T01:44:36.589Z,15.55
2018-10-11T01:45:39.587Z,15.45
2018-10-11T01:46:42.433Z,15.44
2018-10-11T01:47:45.911Z,15.39
2018-10-11T01:48:48.798Z,15.37
2018-10-11T01:49:52.721Z,15.35
2018-10-11T01:50:55.468Z,15.27
2018-10-11T01:51:58.538Z,15.28
2018-10-11T01:53:01.308Z,15.33
2018-10-11T01:54:03.978Z,15.27
2018-10-11T01:55:06.648Z,15.11
2018-10-11T01:56:10.942Z,15.11
2018-10-11T01:57:13.823Z,15.10
2018-10-11T01:58:17.047Z,15.20
2018-10-11T01:59:19.689Z,15.30
2018-10-11T02:00:22.315Z,15.34
2018-10-11T02:01:25.068Z,15.32
2018-10-11T02:02:27.726Z,15.25
2018-10-11T02:03:30.382Z,15.21
2018-10-11T02:04:35.393Z,15.16
2018-10-11T02:05:38.049Z,15.23
2018-10-11T02:06:40.946Z,15.26
2018-10-11T02:07:43.585Z,15.19
2018-10-11T02:08:46.245Z,15.15
2018-10-11T02:09:48.902Z,15.15
2018-10-11T02:10:51.853Z,15.24
2018-10-11T02:11:54.532Z,15.22
2018-10-11T02:12:57.883Z,15.13
2018-10-11T02:14:00.708Z,15.10
2018-10-11T02:15:03.401Z,15.01
2018-10-11T02:16:06.025Z,15.04
2018-10-11T02:17:09.101Z,14.91
2018-10-11T02:18:11.756Z,14.61
2018-10-11T02:19:14.376Z,14.65
2018-10-11T02:20:17.031Z,14.77
2018-10-11T02:21:20.341Z,14.88
2018-10-11T02:22:24.416Z,14.99
2018-10-11T02:23:28.635Z,15.02
2018-10-11T02:24:31.341Z,15.04
2018-10-11T02:25:34.064Z,15.01
2018-10-11T02:26:36.674Z,14.98
2018-10-11T02:27:39.576Z,15.01
2018-10-11T02:28:42.233Z,14.97
2018-10-11T02:29:45.215Z,14.86
2018-10-11T02:30:47.826Z,14.92
2018-10-11T02:31:50.537Z,15.01
2018-10-11T02:32:53.156Z,15.03
2018-10-11T02:33:55.903Z,15.03
2018-10-11T02:34:58.735Z,15.02
2018-10-11T02:36:01.884Z,14.96
2018-10-11T02:37:04.540Z,14.97
2018-10-11T02:38:07.284Z,14.95
2018-10-11T02:39:10.976Z,14.88
2018-10-11T02:40:13.637Z,14.82
2018-10-11T02:41:16.593Z,14.80
2018-10-11T02:42:19.768Z,14.81
2018-10-11T02:43:22.450Z,14.82
2018-10-11T02:44:25.119Z,14.86
2018-10-11T02:45:27.857Z,14.94
2018-10-11T02:46:30.503Z,14.93
2018-10-11T02:47:33.148Z,14.89
2018-10-11T02:48:36.246Z,14.77
2018-10-11T02:49:38.873Z,14.74
2018-10-11T02:50:41.514Z,14.72
2018-10-11T02:51:44.224Z,14.69
2018-10-11T02:52:47.244Z,14.65
2018-10-11T02:53:49.954Z,14.38
2018-10-11T02:54:52.932Z,14.37
2018-10-11T02:55:55.606Z,14.43
2018-10-11T02:56:58.253Z,14.40
2018-10-11T02:58:01.278Z,14.41
2018-10-11T02:59:03.977Z,14.42
2018-10-11T03:00:06.653Z,14.49
2018-10-11T03:01:09.882Z,14.53
2018-10-11T03:02:13.677Z,14.48
2018-10-11T03:03:16.340Z,14.35
2018-10-11T03:04:18.969Z,14.27
2018-10-11T03:05:21.671Z,14.25
2018-10-11T03:06:29.512Z,14.32
2018-10-11T03:07:32.274Z,14.43
2018-10-11T03:08:34.940Z,14.53
2018-10-11T03:09:37.623Z,14.63
2018-10-11T03:10:40.281Z,14.62
2018-10-11T03:11:43.673Z,14.58
2018-10-11T03:12:46.707Z,14.53
2018-10-11T03:13:49.327Z,14.51
2018-10-11T03:14:51.957Z,14.37
2018-10-11T03:15:54.699Z,14.23
2018-10-11T03:16:57.351Z,14.21
2018-10-11T03:17:59.999Z,14.04
2018-10-11T03:19:03.199Z,13.69
2018-10-11T03:20:05.950Z,13.45
2018-10-11T03:21:08.629Z,13.48
2018-10-11T03:22:11.677Z,13.45
2018-10-11T03:23:16.318Z,13.51
2018-10-11T03:24:19.017Z,13.59
2018-10-11T03:25:22.217Z,13.40
2018-10-11T03:26:24.908Z,13.43
2018-10-11T03:27:27.554Z,13.49
2018-10-11T03:28:30.194Z,13.48
2018-10-11T03:29:33.397Z,13.46
2018-10-11T03:30:36.101Z,13.42
2018-10-11T03:31:39.034Z,13.32
2018-10-11T03:32:42.154Z,13.19
2018-10-11T03:33:45.827Z,13.24
2018-10-11T03:34:48.477Z,13.35
2018-10-11T03:35:51.112Z,13.27
2018-10-11T03:36:53.760Z,13.25
2018-10-11T03:37:56.995Z,13.35
2018-10-11T03:38:59.685Z,13.29
2018-10-11T03:40:02.491Z,13.25
2018-10-11T03:41:05.491Z,13.15
2018-10-11T03:42:08.655Z,13.18
2018-10-11T03:43:11.363Z,13.15
2018-10-11T03:44:14.622Z,13.04
2018-10-11T03:45:17.259Z,12.97
2018-10-11T03:46:19.889Z,12.77
2018-10-11T03:47:22.547Z,12.67
2018-10-11T03:48:25.212Z,12.77
2018-10-11T03:49:27.880Z,12.78
2018-10-11T03:50:30.811Z,12.81
2018-10-11T03:51:33.457Z,12.87
2018-10-11T03:52:36.138Z,12.90
2018-10-11T03:53:38.774Z,12.99
2018-10-11T03:54:41.424Z,13.05
2018-10-11T03:55:44.069Z,13.07
2018-10-11T03:56:46.991Z,13.08
2018-10-11T03:57:49.613Z,13.10
2018-10-11T03:58:52.283Z,13.10
2018-10-11T03:59:54.918Z,13.13
2018-10-11T04:00:57.604Z,13.15
2018-10-11T04:02:00.271Z,13.12
2018-10-11T04:03:03.299Z,13.08
2018-10-11T04:04:05.962Z,12.96
2018-10-11T04:05:08.608Z,12.91
2018-10-11T04:06:11.222Z,12.91
2018-10-11T04:07:13.865Z,12.88
2018-10-11T04:08:16.832Z,12.90
2018-10-11T04:09:19.755Z,12.85
2018-10-11T04:10:22.685Z,12.88
2018-10-11T04:11:25.335Z,12.87
2018-10-11T04:12:27.980Z,12.80
2018-10-11T04:13:30.631Z,12.74
2018-10-11T04:14:33.623Z,12.68
2018-10-11T04:15:36.362Z,12.56
2018-10-11T04:16:39.593Z,12.55
2018-10-11T04:17:42.219Z,12.56
2018-10-11T04:18:44.823Z,12.51
2018-10-11T04:19:47.463Z,12.57
2018-10-11T04:20:50.496Z,12.46
2018-10-11T04:21:53.134Z,12.43
2018-10-11T04:22:55.785Z,12.38
2018-10-11T04:23:58.949Z,12.46
2018-10-11T04:25:01.688Z,12.55
2018-10-11T04:26:04.330Z,12.57
2018-10-11T04:27:07.268Z,12.58
2018-10-11T04:28:09.907Z,12.55
2018-10-11T04:29:12.555Z,12.49
2018-10-11T04:30:15.196Z,12.53
2018-10-11T04:31:17.843Z,12.61
2018-10-11T04:32:20.458Z,12.73
2018-10-11T04:33:23.575Z,12.74
2018-10-11T04:34:26.398Z,12.71
2018-10-11T04:35:29.023Z,12.71
2018-10-11T04:36:31.698Z,12.64
2018-10-11T04:37:34.379Z,12.62
2018-10-11T04:38:36.998Z,12.63
2018-10-11T04:39:39.925Z,12.53
2018-10-11T04:40:43.065Z,12.41
2018-10-11T04:41:45.714Z,12.39
2018-10-11T04:42:48.414Z,12.34
2018-10-11T04:43:51.044Z,12.37
2018-10-11T04:44:53.709Z,12.42
2018-10-11T04:45:56.650Z,12.31
2018-10-11T04:47:00.131Z,12.29
2018-10-11T04:48:02.825Z,12.32
2018-10-11T04:49:05.498Z,12.38
2018-10-11T04:50:08.157Z,12.26
2018-10-11T04:51:10.838Z,12.30
2018-10-11T04:52:13.836Z,12.37
2018-10-11T04:53:16.601Z,12.39
2018-10-11T04:54:19.277Z,12.40
2018-10-11T04:55:22.126Z,12.40
2018-10-11T04:56:24.802Z,12.39
2018-10-11T04:57:27.422Z,12.39
2018-10-11T04:58:30.513Z,12.34
2018-10-11T04:59:33.274Z,11.91
2018-10-11T05:00:35.972Z,11.73
2018-10-11T05:01:38.642Z,11.78
2018-10-11T05:02:41.511Z,11.86
2018-10-11T05:03:44.192Z,11.97
2018-10-11T05:04:47.275Z,12.04
2018-10-11T05:05:50.121Z,12.06
2018-10-11T05:06:52.784Z,11.99
2018-10-11T05:07:55.666Z,12.01
2018-10-11T05:08:58.404Z,12.02
2018-10-11T05:10:01.119Z,11.95
2018-10-11T05:11:04.314Z,11.92
2018-10-11T05:12:07.057Z,11.97
2018-10-11T05:13:09.711Z,11.93
2018-10-11T05:14:12.705Z,11.94
2018-10-11T05:15:15.348Z,11.93
2018-10-11T05:16:18.291Z,12.00
2018-10-11T05:17:21.339Z,12.01
2018-10-11T05:18:24.004Z,12.06
2018-10-11T05:19:26.663Z,12.05
2018-10-11T05:20:29.339Z,12.04
2018-10-11T05:21:32.053Z,12.03
2018-10-11T05:22:34.783Z,12.03
2018-10-11T05:23:37.998Z,12.03
2018-10-11T05:24:40.656Z,11.97
2018-10-11T05:25:43.340Z,11.90
2018-10-11T05:26:45.984Z,11.80
2018-10-11T05:27:48.753Z,11.80
2018-10-11T05:28:51.743Z,11.81
2018-10-11T05:29:54.827Z,11.87
2018-10-11T05:43:54.419Z,11.56
2018-10-11T05:44:58.035Z,11.69
2018-10-11T05:46:00.674Z,11.71
2018-10-11T05:47:03.622Z,11.63
2018-10-11T05:48:06.251Z,11.55
2018-10-11T05:49:09.308Z,11.48
2018-10-11T05:50:12.389Z,11.40
2018-10-11T05:51:15.004Z,11.46
2018-10-11T05:52:17.643Z,11.49
2018-10-11T05:53:20.378Z,11.63
2018-10-11T05:54:23.039Z,11.71
2018-10-11T05:55:26.177Z,11.74
2018-10-11T05:56:29.255Z,11.80
2018-10-11T05:57:31.887Z,11.82
2018-10-11T05:58:34.535Z,11.79
2018-10-11T05:59:37.987Z,11.62
2018-10-11T06:00:40.641Z,11.64
2018-10-11T06:01:43.777Z,11.75
2018-10-11T06:02:46.429Z,11.88
2018-10-11T06:03:49.108Z,11.87
2018-10-11T06:04:53.290Z,11.87
2018-10-11T06:05:55.950Z,11.88
2018-10-11T06:06:58.597Z,11.83
2018-10-11T06:08:01.769Z,11.90
2018-10-11T06:09:05.913Z,12.06
2018-10-11T06:10:08.679Z,12.27
2018-10-11T06:11:11.751Z,12.36
2018-10-11T06:12:14.544Z,12.41
2018-10-11T06:13:17.178Z,12.28
2018-10-11T06:14:20.328Z,12.15
2018-10-11T06:15:22.983Z,12.18
2018-10-11T06:16:25.941Z,12.21
2018-10-11T06:17:28.627Z,12.22
2018-10-11T06:18:31.288Z,12.20
2018-10-11T06:19:34.450Z,12.19
2018-10-11T06:20:37.530Z,12.28
2018-10-11T06:21:40.159Z,12.32
2018-10-11T06:22:43.170Z,12.48
2018-10-11T06:23:47.705Z,12.60
2018-10-11T06:24:50.737Z,12.70
2018-10-11T06:25:54.732Z,12.78
2018-10-11T06:27:02.347Z,12.92
2018-10-11T06:28:05.846Z,13.01
2018-10-11T06:29:08.853Z,12.94
2018-10-11T06:30:12.506Z,12.85
2018-10-11T06:31:15.344Z,12.98
2018-10-11T06:32:19.171Z,13.06
2018-10-11T06:33:22.378Z,13.06
2018-10-11T06:34:25.340Z,13.04
2018-10-11T06:35:28.126Z,13.19
2018-10-11T06:36:31.606Z,13.46
2018-10-11T06:37:34.785Z,13.81
2018-10-11T06:38:41.606Z,13.82
2018-10-11T06:39:49.822Z,13.99
2018-10-11T06:40:55.756Z,14.03
2018-10-11T06:41:58.657Z,14.03
2018-10-11T06:43:01.722Z,14.10
2018-10-11T06:44:04.489Z,14.05
2018-10-11T06:45:07.178Z,13.45
2018-10-11T06:46:10.533Z,13.28
2018-10-11T06:47:14.055Z,13.52
2018-10-11T06:48:18.560Z,13.76
2018-10-11T06:49:21.243Z,13.99
2018-10-11T06:50:24.004Z,14.81
2018-10-11T06:51:26.669Z,15.19
2018-10-11T06:52:30.082Z,13.84
2018-10-11T06:53:34.996Z,13.86
2018-10-11T06:54:37.913Z,14.08
2018-10-11T06:55:42.188Z,13.79
2018-10-11T06:56:50.138Z,13.61
2018-10-11T06:57:53.225Z,13.30
2018-10-11T06:58:56.462Z,13.71
2018-10-11T06:59:59.093Z,14.11
2018-10-11T07:01:02.767Z,14.42
2018-10-11T07:02:05.605Z,14.85
2018-10-11T07:03:08.733Z,15.16
2018-10-11T07:04:11.523Z,15.57
2018-10-11T07:05:14.850Z,15.84
2018-10-11T07:06:18.582Z,15.91
2018-10-11T07:07:22.228Z,15.72
2018-10-11T07:08:26.498Z,15.77
2018-10-11T07:09:29.778Z,15.67
2018-10-11T07:10:33.268Z,15.68
2018-10-11T07:11:37.491Z,15.83
2018-10-11T07:12:44.986Z,16.09
2018-10-11T07:13:48.322Z,16.28
2018-10-11T07:14:51.548Z,16.51
2018-10-11T07:15:54.549Z,16.70
2018-10-11T07:16:58.508Z,16.43
2018-10-11T07:18:01.386Z,16.76
2018-10-11T07:19:04.063Z,17.07
2018-10-11T07:20:06.726Z,17.09
2018-10-11T07:21:09.382Z,17.11
2018-10-11T07:22:12.833Z,17.35
2018-10-11T07:23:16.323Z,17.53
2018-10-11T07:24:19.966Z,17.40
2018-10-11T07:25:28.984Z,17.46
2018-10-11T07:26:32.215Z,17.51
2018-10-11T07:27:34.903Z,17.56
2018-10-11T07:28:38.127Z,17.54
2018-10-11T07:29:40.764Z,17.50
2018-10-11T07:30:43.808Z,17.12
2018-10-11T07:31:46.624Z,17.13
2018-10-11T07:32:49.257Z,17.21
2018-10-11T07:33:52.755Z,17.40
2018-10-11T07:34:55.574Z,17.74
2018-10-11T07:35:58.258Z,18.17
2018-10-11T07:37:01.441Z,18.49
2018-10-11T07:38:04.127Z,18.70
2018-10-11T07:39:06.757Z,18.60
2018-10-11T07:40:10.442Z,18.76
2018-10-11T07:41:13.791Z,18.07
2018-10-11T07:42:16.511Z,18.21
2018-10-11T07:43:19.938Z,18.43
2018-10-11T07:44:23.794Z,18.50
2018-10-11T07:45:27.379Z,18.11
2018-10-11T07:46:30.398Z,17.96
2018-10-11T07:47:34.159Z,18.23
2018-10-11T07:48:37.446Z,18.47
2018-10-11T07:49:40.732Z,18.83
2018-10-11T07:50:43.671Z,18.67
2018-10-11T07:51:46.678Z,18.17
2018-10-11T07:52:49.652Z,18.09
2018-10-11T07:53:52.543Z,18.26
2018-10-11T07:54:55.397Z,18.14
2018-10-11T07:55:58.515Z,17.87
2018-10-11T07:57:01.288Z,18.05
2018-10-11T07:58:04.079Z,18.04
2018-10-11T07:59:08.579Z,18.62
2018-10-11T08:00:13.282Z,19.20
2018-10-11T08:01:17.596Z,18.81
2018-10-11T10:43:13.322Z,24.30
2018-10-11T10:44:16.041Z,24.69
2018-10-11T10:45:18.911Z,25.13
2018-10-11T10:46:22.594Z,25.25
2018-10-11T10:47:26.027Z,24.58
2018-10-11T10:48:30.457Z,24.20
2018-10-11T10:49:34.750Z,24.22
2018-10-11T10:50:38.574Z,24.33
2018-10-11T10:51:42.317Z,23.85
2018-10-11T10:52:45.518Z,23.92
2018-10-11T10:53:50.510Z,24.89
2018-10-11T10:54:55.406Z,25.62
2018-10-11T10:55:58.482Z,26.14
2018-10-11T10:57:02.532Z,26.57
2018-10-11T10:58:05.389Z,27.25
2018-10-11T10:59:08.564Z,27.35
2018-10-11T11:00:11.414Z,27.51
2018-10-11T11:01:14.605Z,27.63
2018-10-11T11:02:17.321Z,27.59
2018-10-11T11:03:20.733Z,27.87
2018-10-11T11:04:26.556Z,27.87
2018-10-11T11:05:29.360Z,27.89
2018-10-11T11:06:32.867Z,28.07
2018-10-11T11:07:35.640Z,27.96
2018-10-11T11:08:40.450Z,27.76
2018-10-11T11:09:43.367Z,27.94
2018-10-11T11:10:49.337Z,27.46
2018-10-11T11:11:59.831Z,27.34
2018-10-11T11:13:04.004Z,27.85
2018-10-11T11:14:06.756Z,28.36
2018-10-11T11:15:10.237Z,27.69
2018-10-11T11:16:13.501Z,26.93
2018-10-11T11:17:19.918Z,25.87
2018-10-11T11:18:23.255Z,24.82
2018-10-11T11:19:31.618Z,24.84
2018-10-11T11:20:35.359Z,24.66
2018-10-11T11:21:38.178Z,24.13
2018-10-11T11:22:40.974Z,24.18
2018-10-11T11:23:45.159Z,25.05
2018-10-11T11:24:49.587Z,26.18
2018-10-11T11:25:52.337Z,26.75
2018-10-11T11:26:55.788Z,27.33
2018-10-11T11:28:01.289Z,27.80
2018-10-11T11:29:04.232Z,27.51
2018-10-11T11:30:07.844Z,27.69
2018-10-11T11:31:12.886Z,26.69
2018-10-11T11:32:17.359Z,26.22
2018-10-11T11:33:21.351Z,26.76
2018-10-11T11:34:24.478Z,25.99
2018-10-11T11:35:28.575Z,25.83
2018-10-11T11:36:31.733Z,25.73
2018-10-11T11:37:34.932Z,26.00
2018-10-11T11:38:38.457Z,26.22
2018-10-11T11:39:41.527Z,26.87
2018-10-11T11:40:44.303Z,25.98
2018-10-11T11:41:48.004Z,26.01
2018-10-11T11:42:52.143Z,26.03
2018-10-11T11:43:55.708Z,25.31
2018-10-11T11:44:58.813Z,24.38
2018-10-11T11:46:03.553Z,25.00
2018-10-11T11:47:06.739Z,24.63
2018-10-11T11:48:09.924Z,25.16
2018-10-11T11:49:13.021Z,25.60
2018-10-11T11:50:18.633Z,25.22
2018-10-11T11:51:21.550Z,25.67
2018-10-11T11:52:24.532Z,25.97
2018-10-11T11:53:28.815Z,27.09
2018-10-11T11:54:32.011Z,26.30
2018-10-11T11:55:34.941Z,26.17
2018-10-11T11:56:37.968Z,26.03
2018-10-11T11:57:40.664Z,25.62
2018-10-11T11:58:43.529Z,25.41
2018-10-11T11:59:46.407Z,25.32
2018-10-11T12:00:50.082Z,25.39
2018-10-11T12:01:52.966Z,24.86
2018-10-11T12:02:57.984Z,25.49
2018-10-11T12:04:03.205Z,25.91
2018-10-11T12:05:07.310Z,25.58
2018-10-11T12:06:10.752Z,25.50
2018-10-11T12:07:15.111Z,26.64
2018-10-11T12:08:18.796Z,26.54
2018-10-11T12:09:22.271Z,25.87
2018-10-11T12:10:25.855Z,25.01
2018-10-11T12:11:29.588Z,24.47
2018-10-11T12:12:32.514Z,23.97
2018-10-11T12:13:35.498Z,24.65
2018-10-11T12:14:38.641Z,25.72
2018-10-11T12:15:43.039Z,26.51
2018-10-11T12:16:46.372Z,25.64
2018-10-11T12:17:50.894Z,25.19
2018-10-11T12:18:54.650Z,24.11
2018-10-11T12:19:59.915Z,24.76
2018-10-11T12:21:06.287Z,25.71
2018-10-11T12:22:10.220Z,26.22
2018-10-11T12:23:13.811Z,25.07
2018-10-11T12:24:21.127Z,24.51
2018-10-11T12:25:23.902Z,24.46
2018-10-11T12:26:27.177Z,25.79
2018-10-11T12:27:31.439Z,26.67
2018-10-11T12:28:35.678Z,27.19
2018-10-11T12:29:40.101Z,26.73
2018-10-11T12:30:44.141Z,26.80
2018-10-11T12:31:47.143Z,27.37
2018-10-11T12:32:50.355Z,27.22
2018-10-11T12:33:53.105Z,26.38
2018-10-11T12:34:56.325Z,26.24
2018-10-11T12:36:01.683Z,26.10
2018-10-11T12:37:05.756Z,25.95
2018-10-11T12:38:08.786Z,25.62
2018-10-11T12:39:12.069Z,25.38
2018-10-11T12:40:16.031Z,25.71
2018-10-11T12:41:19.882Z,25.60
2018-10-11T12:42:23.108Z,25.79
2018-10-11T12:43:25.923Z,25.68
2018-10-11T12:44:28.676Z,24.76
2018-10-11T12:45:31.816Z,25.94
2018-10-11T12:46:36.232Z,26.87
2018-10-11T12:47:38.061Z,27.46
2018-10-11T12:48:43.498Z,27.88
2018-10-11T12:49:49.487Z,28.06
2018-10-11T12:50:54.995Z,27.98
2018-10-11T12:51:58.116Z,27.96
2018-10-11T12:53:01.423Z,28.21
2018-10-11T12:54:05.359Z,28.53
2018-10-11T12:55:08.501Z,28.71
2018-10-11T12:56:11.501Z,28.81
2018-10-11T12:57:17.169Z,28.85
2018-10-11T12:58:17.361Z,27.61
2018-10-11T12:59:21.220Z,26.33
2018-10-11T13:00:23.985Z,26.05
2018-10-11T13:01:26.809Z,25.39
2018-10-11T13:02:30.676Z,25.24
2018-10-11T13:03:33.663Z,25.71
2018-10-11T13:04:36.523Z,25.23
2018-10-11T13:05:39.902Z,25.04
2018-10-11T13:06:42.771Z,25.05
2018-10-11T13:07:45.660Z,25.13
2018-10-11T13:08:49.653Z,25.49
2018-10-11T13:09:52.444Z,25.23
2018-10-11T13:10:55.149Z,25.10
2018-10-11T13:11:58.906Z,24.80
2018-10-11T13:13:02.381Z,25.33
2018-10-11T13:14:05.845Z,26.14
2018-10-11T13:15:08.972Z,26.97
2018-10-11T13:16:11.956Z,27.31
2018-10-11T13:17:14.902Z,27.68
2018-10-11T13:18:17.741Z,27.92
2018-10-11T13:19:21.197Z,27.87
2018-10-11T13:20:24.007Z,27.83
2018-10-11T13:21:27.454Z,27.70
2018-10-11T13:22:30.405Z,27.51
2018-10-11T13:23:34.289Z,27.71
2018-10-11T13:24:40.591Z,27.76
2018-10-11T13:25:40.186Z,27.32
2018-10-11T13:26:44.313Z,26.32
2018-10-11T13:27:47.622Z,25.46
2018-10-11T13:28:51.855Z,26.73
2018-10-11T13:29:55.304Z,25.34
2018-10-11T13:30:58.427Z,25.91
2018-10-11T13:32:01.326Z,25.35
2018-10-11T13:33:04.466Z,26.13
2018-10-11T13:34:07.684Z,26.90
2018-10-11T13:35:11.679Z,26.69
2018-10-11T13:36:15.741Z,25.69
2018-10-11T13:37:19.403Z,26.14
2018-10-11T13:38:23.467Z,25.89
2018-10-11T13:39:26.432Z,25.77
2018-10-11T13:40:29.667Z,25.66
2018-10-11T13:41:33.035Z,25.58
2018-10-11T13:42:36.211Z,24.98
2018-10-11T13:43:39.842Z,25.10
2018-10-11T13:44:42.601Z,24.83
2018-10-11T13:45:47.608Z,24.45
2018-10-11T13:46:52.476Z,24.36
2018-10-11T13:47:55.313Z,24.48
2018-10-11T13:49:01.437Z,25.05
2018-10-11T13:50:05.546Z,25.67
2018-10-11T13:51:10.175Z,25.56
2018-10-11T13:52:17.051Z,24.73
2018-10-11T13:53:19.456Z,25.73
2018-10-11T14:34:59.329Z,21.48
2018-10-11T14:36:02.200Z,21.43
2018-10-11T14:37:05.521Z,21.36
2018-10-11T14:38:08.309Z,21.20
2018-10-11T14:39:11.022Z,21.16
2018-10-11T14:40:13.920Z,21.24
2018-10-11T14:41:17.631Z,21.28
2018-10-11T14:42:21.296Z,21.21
2018-10-11T14:43:25.731Z,21.04
2018-10-11T14:44:29.402Z,21.01
2018-10-11T14:45:33.449Z,20.92
2018-10-11T14:46:36.236Z,20.84
2018-10-11T14:47:39.006Z,20.83
2018-10-11T14:48:41.731Z,20.76
2018-10-11T14:49:44.727Z,20.79
2018-10-11T14:50:47.757Z,20.68
2018-10-11T14:51:50.500Z,20.70
2018-10-11T14:52:53.270Z,20.65
2018-10-11T14:53:58.877Z,20.71
2018-10-11T14:54:59.034Z,20.61
2018-10-11T14:56:03.342Z,20.59
2018-10-11T14:57:07.920Z,20.59
2018-10-11T14:58:10.850Z,20.62
2018-10-11T14:59:13.857Z,20.52
2018-10-11T15:00:16.778Z,20.47
2018-10-11T15:01:19.769Z,20.61
2018-10-11T15:02:23.164Z,20.53
2018-10-11T15:03:26.413Z,20.47
2018-10-11T15:04:29.264Z,20.52
2018-10-11T15:05:35.387Z,20.48
2018-10-11T15:06:38.120Z,20.42
2018-10-11T15:07:40.897Z,20.44
2018-10-11T15:08:44.002Z,20.44
2018-10-11T15:09:46.782Z,20.40
2018-10-11T15:10:50.747Z,20.59
2018-10-11T15:11:53.570Z,20.64
2018-10-11T15:12:58.577Z,20.56
2018-10-11T15:14:02.025Z,20.48
2018-10-11T15:15:06.599Z,20.44
2018-10-11T15:16:09.418Z,20.73
2018-10-11T15:17:12.352Z,20.68
2018-10-11T15:18:16.702Z,20.47
2018-10-11T15:19:19.487Z,20.37
2018-10-11T15:20:24.768Z,20.28
2018-10-11T15:21:29.609Z,20.31
2018-10-11T15:22:32.307Z,20.26
2018-10-11T15:23:35.390Z,20.16
2018-10-11T15:24:38.827Z,20.10
2018-10-11T15:25:41.822Z,20.22
2018-10-11T15:26:45.150Z,20.22
2018-10-11T15:27:48.391Z,20.10
2018-10-11T15:28:51.913Z,20.08
2018-10-11T15:29:54.727Z,20.02
2018-10-11T15:30:57.469Z,19.98
2018-10-11T15:32:01.886Z,20.00
2018-10-11T15:33:06.299Z,19.94
2018-10-11T15:35:15.735Z,19.86
2018-10-11T15:36:18.536Z,19.94
2018-10-11T15:37:21.253Z,19.95
2018-10-11T15:38:23.973Z,19.95
2018-10-11T15:39:26.678Z,19.85
2018-10-11T15:40:31.675Z,19.82
2018-10-11T15:41:34.730Z,19.84
2018-10-11T15:42:37.678Z,19.84
2018-10-11T15:43:43.792Z,19.84
2018-10-11T15:44:47.073Z,19.79
2018-10-11T15:45:49.843Z,19.76
2018-10-11T15:46:53.027Z,19.73
2018-10-11T15:47:56.678Z,19.77
2018-10-11T15:49:00.575Z,19.68
2018-10-11T15:50:03.554Z,19.69
2018-10-11T15:51:06.383Z,19.67
2018-10-11T15:52:09.203Z,19.63
2018-10-11T15:53:12.273Z,19.64
2018-10-11T15:54:17.530Z,19.67
2018-10-11T15:55:20.279Z,19.66
2018-10-11T15:56:23.816Z,19.63
2018-10-11T15:57:27.294Z,19.62
2018-10-11T15:58:30.837Z,19.69
2018-10-11T15:59:33.782Z,19.70
2018-10-11T16:00:36.445Z,19.63
2018-10-11T16:01:40.237Z,19.61
2018-10-11T16:02:44.489Z,19.58
2018-10-11T16:03:47.278Z,19.47
2018-10-11T16:04:50.476Z,19.47
2018-10-11T16:05:53.630Z,19.49
2018-10-11T16:06:56.612Z,19.49
2018-10-11T16:07:59.329Z,19.48
2018-10-11T16:09:02.144Z,19.44
2018-10-11T16:10:04.870Z,19.42
2018-10-11T16:11:10.054Z,19.40
2018-10-11T16:12:13.678Z,19.39
2018-10-11T16:13:18.335Z,19.43
2018-10-11T16:14:21.077Z,19.37
2018-10-11T16:15:28.445Z,19.38
2018-10-11T16:16:31.281Z,19.38
2018-10-11T16:17:34.100Z,19.40
2018-10-11T16:18:37.776Z,19.42
2018-10-11T16:19:43.229Z,19.49
2018-10-11T16:20:48.933Z,19.40
2018-10-11T16:21:52.489Z,19.41
2018-10-11T16:22:55.396Z,19.42
2018-10-11T16:23:58.142Z,19.42
2018-10-11T16:25:01.256Z,19.34
2018-10-11T16:26:04.999Z,19.31
2018-10-11T16:27:07.731Z,19.31
2018-10-11T16:28:10.555Z,19.31
2018-10-11T16:29:13.305Z,19.26
2018-10-11T16:30:17.634Z,19.25
2018-10-11T16:43:14.006Z,19.19
2018-10-11T16:44:17.527Z,19.23
2018-10-11T16:45:20.348Z,19.22
2018-10-11T16:46:26.956Z,19.17
2018-10-11T16:47:30.734Z,19.11
2018-10-11T16:48:35.586Z,19.11
2018-10-11T16:49:41.308Z,19.08
2018-10-11T16:50:44.605Z,19.08
2018-10-11T16:51:47.329Z,19.12
2018-10-11T16:52:50.048Z,19.11
2018-10-11T16:53:53.519Z,19.12
2018-10-11T16:54:56.721Z,19.05
2018-10-11T16:55:59.372Z,19.03
2018-10-11T16:57:02.112Z,19.00
2018-10-11T16:58:04.831Z,18.98
2018-10-11T16:59:09.178Z,18.96
2018-10-11T17:00:12.443Z,18.92
2018-10-11T17:01:16.570Z,18.91
2018-10-11T17:02:20.970Z,18.91
2018-10-11T17:03:24.182Z,18.95
2018-10-11T17:04:30.637Z,18.95
2018-10-11T17:05:34.811Z,19.00
2018-10-11T17:06:43.700Z,18.93
2018-10-11T17:07:48.695Z,18.88
2018-10-11T17:08:51.660Z,18.85
2018-10-11T17:09:54.751Z,18.83
2018-10-11T17:10:57.461Z,18.83
2018-10-11T17:12:00.233Z,18.80
2018-10-11T17:13:03.732Z,18.83
2018-10-11T17:14:06.748Z,18.88
2018-10-11T17:15:10.321Z,18.88
2018-10-11T17:16:13.255Z,18.89
2018-10-11T17:17:18.419Z,18.87
2018-10-11T17:18:25.431Z,18.90
2018-10-11T17:19:28.681Z,18.88
2018-10-11T17:20:37.402Z,18.82
2018-10-11T17:21:40.183Z,18.82
2018-10-11T17:22:42.852Z,18.85